Mi-jo II — WDA7765 — position and weather

sailwx.info

Track history (hours):
 
Tides and Currents Weather Stations Pressure Air Temp Water Temp Dewpoint Dewpoint Depression Visibility Wind Speed Wind Dir Waves Ship Positions

Mi-jo II

Owner: Scardigno, Michael J, Leonardo, NJ. More information available from US FCC via Universal Licensing System and Coast Guard Vessel Documentation Center.

Last reported at 2017-Jun-27 16:42 UTC. Time now 2017-Jun-28 00:20 UTC.
Position N 40°29' W 074°02'.

Length 20 m.

Type: Fishing. MMSI: 366846920.

Date/timePositionNaut miles runAvg speedWind from/ knotsBaromVisibWave heightAir tempDewpointWater temp
2017-Jun-27 16:42N 40°29' W 074°02'1 0.0
2017-Jun-26 13:36N 40°30' W 074°02'0 1.3
2017-Jun-26 13:27N 40°30' W 074°01'0 0.2
2017-Jun-26 12:42N 40°29' W 074°01'0 1.7
2017-Jun-26 12:29N 40°29' W 074°01'1 0.1
2017-Jun-25 21:17N 40°29' W 074°02'0 1.3
2017-Jun-25 20:59N 40°29' W 074°02'1 2.1
2017-Jun-25 20:30N 40°30' W 074°00'1 1.6
2017-Jun-25 20:00N 40°29' W 074°01'0 0.2
2017-Jun-25 19:26N 40°29' W 074°01'2 0.4
2017-Jun-25 14:02N 40°31' W 074°01'1 1.9
2017-Jun-25 13:30N 40°30' W 074°01'1 1.5
2017-Jun-25 12:53N 40°29' W 074°01'0 0.5
2017-Jun-25 12:29N 40°29' W 074°01'1 1.5
2017-Jun-25 11:57N 40°29' W 074°02'  
2017-Jun-22 16:28N 40°30' W 074°02'2 5.1
2017-Jun-22 16:00N 40°32' W 073°60'1 1.3
2017-Jun-22 15:30N 40°33' W 073°59'0 0.5
2017-Jun-22 15:00N 40°32' W 073°59'4 2.7
2017-Jun-22 13:37N 40°29' W 074°01'0 1.5
2017-Jun-22 13:28N 40°29' W 074°01'4 1.3
2017-Jun-22 10:04N 40°25' W 074°02'0 0.0
2017-Jun-22 10:00N 40°25' W 074°02'0 0.0
2017-Jun-22 09:06N 40°25' W 074°02'4 0.2
2017-Jun-21 12:35N 40°29' W 074°02'0 1.0
2017-Jun-21 12:22N 40°29' W 074°02'0 0.1
2017-Jun-21 11:50N 40°29' W 074°02'4 3.5
2017-Jun-21 10:43N 40°25' W 074°02'0 0.0
2017-Jun-21 10:24N 40°25' W 074°02'4 0.2
2017-Jun-20 17:05N 40°29' W 074°01'0 1.0
2017-Jun-20 17:01N 40°29' W 074°01'2 0.6
2017-Jun-20 13:54N 40°30' W 074°03'3 6.8
2017-Jun-20 13:30N 40°32' W 073°60'2 1.0
2017-Jun-20 11:37N 40°30' W 073°59'214.2
2017-Jun-20 11:29N 40°29' W 074°01'2 0.0
2017-Jun-18 17:28N 40°27' W 074°02'2 0.8
2017-Jun-18 14:42N 40°29' W 074°01'0 1.8
2017-Jun-18 14:29N 40°29' W 074°01'1 0.1
2017-Jun-17 22:56N 40°28' W 074°01'1 1.3
2017-Jun-17 22:12N 40°29' W 074°02'  
Track history (hours):
 
Tides and Currents Weather Stations Pressure Air Temp Water Temp Dewpoint Dewpoint Depression Visibility Wind Speed Wind Dir Waves Ship Positions

Mi-jo II

Owner: Scardigno, Michael J, Leonardo, NJ. More information available from US FCC via Universal Licensing System and Coast Guard Vessel Documentation Center.

Last reported at 2017-Jun-27 16:42 UTC. Time now 2017-Jun-28 00:20 UTC.
Position N 40°29' W 074°02'.

Length 20 m.

Type: Fishing. MMSI: 366846920.

Date/timePositionNaut miles runAvg speedWind from/ knotsBaromVisibWave heightAir tempDewpointWater temp
2017-Jun-27 16:42N 40°29' W 074°02'1 0.0
2017-Jun-26 13:36N 40°30' W 074°02'0 1.3
2017-Jun-26 13:27N 40°30' W 074°01'0 0.2
2017-Jun-26 12:42N 40°29' W 074°01'0 1.7
2017-Jun-26 12:29N 40°29' W 074°01'1 0.1
2017-Jun-25 21:17N 40°29' W 074°02'0 1.3
2017-Jun-25 20:59N 40°29' W 074°02'1 2.1
2017-Jun-25 20:30N 40°30' W 074°00'1 1.6
2017-Jun-25 20:00N 40°29' W 074°01'0 0.2
2017-Jun-25 19:26N 40°29' W 074°01'2 0.4
2017-Jun-25 14:02N 40°31' W 074°01'1 1.9
2017-Jun-25 13:30N 40°30' W 074°01'1 1.5
2017-Jun-25 12:53N 40°29' W 074°01'0 0.5
2017-Jun-25 12:29N 40°29' W 074°01'1 1.5
2017-Jun-25 11:57N 40°29' W 074°02'  
2017-Jun-22 16:28N 40°30' W 074°02'2 5.1
2017-Jun-22 16:00N 40°32' W 073°60'1 1.3
2017-Jun-22 15:30N 40°33' W 073°59'0 0.5
2017-Jun-22 15:00N 40°32' W 073°59'4 2.7
2017-Jun-22 13:37N 40°29' W 074°01'0 1.5
2017-Jun-22 13:28N 40°29' W 074°01'4 1.3
2017-Jun-22 10:04N 40°25' W 074°02'0 0.0
2017-Jun-22 10:00N 40°25' W 074°02'0 0.0
2017-Jun-22 09:06N 40°25' W 074°02'4 0.2
2017-Jun-21 12:35N 40°29' W 074°02'0 1.0
2017-Jun-21 12:22N 40°29' W 074°02'0 0.1
2017-Jun-21 11:50N 40°29' W 074°02'4 3.5
2017-Jun-21 10:43N 40°25' W 074°02'0 0.0
2017-Jun-21 10:24N 40°25' W 074°02'4 0.2
2017-Jun-20 17:05N 40°29' W 074°01'0 1.0
2017-Jun-20 17:01N 40°29' W 074°01'2 0.6
2017-Jun-20 13:54N 40°30' W 074°03'3 6.8
2017-Jun-20 13:30N 40°32' W 073°60'2 1.0
2017-Jun-20 11:37N 40°30' W 073°59'214.2
2017-Jun-20 11:29N 40°29' W 074°01'2 0.0
2017-Jun-18 17:28N 40°27' W 074°02'2 0.8
2017-Jun-18 14:42N 40°29' W 074°01'0 1.8
2017-Jun-18 14:29N 40°29' W 074°01'1 0.1
2017-Jun-17 22:56N 40°28' W 074°01'1 1.3
2017-Jun-17 22:12N 40°29' W 074°02'  

Dump ship's entire track history